Record high temperature 107.1°F Record low temperature 10.6°F Record high gust 49.5 mph Record high average 28.3 mph Record daily rain 11.65 in. Record low windchill 2.7°F Record high barometer 30.818 in. Record low barometer 29.078 in.
Daily high pressure 30.133 in. Daily low pressure 30.120 in. Daily low windchill 51.5°F Daily high heat index 53.9°F Daily high gust speed 2.3 mph E Daily high average speed 1.4 mph ENE
On the Greenway Weather data
LAST READING AT TIME: 3:01 AM DATE: October 01 2017, time of next update: 3:02 am
Current WeatherNight time/Dry/A few clouds Current Temperature 51.5°F (10.8°C), Apparent temp 52.1°F
Maximum Temperature (since midnight)53.9°F at: 12:00 AM Minimum Temperature (since midnight)51.5°F at: 3:00 AM
Average windspeed (ten minute)0.0 mph Wind Direction (ten minute)ENE (68°)
Windchill Temperature 51.5°F Maximum Gust (last hour)1.0 mph at: 2:25AM
Maximum Gust (since midnight)2.3 mph at: 12:32 AM Maximum 1 minute average (since midnight)1.4 mph at: 1:58 AM
Rainfall (last hour)0.00 in. (0.0 mm) Rainfall (since midnight)0.00 in. (0.0 mm) ---
Rainfall This month 0.00 in. (0.0 mm) Rainfall To date this year 0.00 in. (0.0 mm)
Maximum rain per minute (last hour)0.00 in/min Maximum rain per hour (last 6 hours)0.01 in/hour
Yesterdays rainfall 0.01 in DewPoint 51.5°F (Wet Bulb :51.5°F )
Humidity 100 %, Humidex 54.5°F Barometer corrected to msl30.126 in. (1020.2 hPa)
Pressure change -0.00 in. (last hour) Trend (last hour)STEADY
Pressure change (last 12 hours)+0.01 in Pressure change (last 6 hours)-0.00 in
Current Indoor Temp. 83.9°F
Current Indoor Hum. 32%
Current Solar 0 W/Mē
Maximum solar (since midnight) 0 W/Mē Minimum solar (since midnight)0 W/Mē
Current 00:00 hours of sunshine today, current sky: Night time/Dry/A few clouds
Sunshine hours for the year: 00:00 hrs Sunshine hours for the month: 00:00 hrs
Current evapotranspiration 0.00 inches per day. Yesterday's reading 0.01

This page is updated from recent data collected by a DAVIS VANTAGE PRO weather station Use the Reload or Refresh facility on your browser to retrieve the latest data.


Click here for the last 24 hour graph
Click here for the last 48 hour graph
Click here for the last 72 hour graph
Click here for the month to date graph


Weather report/warning/Metars

Expires:201710011130;;184383
FPUS56 KPQR 010440
ZFPPQR

Zone Forecasts for Northwest Oregon and Southwest Washington
National Weather Service Portland OR
940 PM PDT Sat Sep 30 2017

Spot Temperatures are for Tonight, Sunday, Sunday Night, Monday, 
Monday Night, and Tuesday.


ORZ006-WAZ039-011130-
Greater Portland Metro Area-Greater Vancouver Area-
Including the cities of Hillsboro, Portland, Wilsonville, 
Oregon City, Gresham, Troutdale, Vancouver, Battle Ground, 
Ridgefield, Washougal, Yacolt, and Amboy
940 PM PDT Sat Sep 30 2017

.TONIGHT...Partly cloudy with scattered showers until midnight, then
mostly cloudy with isolated showers after midnight. Patchy fog after
midnight. Lows 45 to 50. Southwest wind 5 to 10 mph. Chance of
precipitation 50 percent. Rainfall amounts less than a tenth of an
inch. 
.SUNDAY...Partly sunny. Patchy morning fog. Scattered showers in the
morning, then scattered showers and a slight chance of thunderstorms
in the afternoon. Highs 60 to 65. West wind 5 to 10 mph. Chance of
precipitation 50 percent. Rainfall amounts less than a tenth of an
inch, except higher amounts possible in thunderstorms. 
.SUNDAY NIGHT...Partly cloudy. Slight chance of thunderstorms and
isolated showers in the evening. Patchy fog after midnight. Colder.
Lows 40 to 45. Northwest wind 5 to 10 mph. Chance of precipitation
20 percent. 
.MONDAY...Partly cloudy in the morning, then mostly sunny. Patchy
morning fog. Highs 60 to 65. Light wind. 
.MONDAY NIGHT...Mostly clear. Lows 40 to 45. North wind 5 to 10 mph.
.TUESDAY...Mostly sunny. Highs around 70. 
.TUESDAY NIGHT...Mostly clear. Lows 40 to 45. 
.WEDNESDAY...Mostly sunny. Highs around 70. 
.WEDNESDAY NIGHT...Partly cloudy. Lows around 45. 
.THURSDAY...Partly cloudy. A 20 percent chance of showers in the
afternoon. Highs around 70. 
.THURSDAY NIGHT...Partly cloudy with a 20 percent chance of showers.
Lows around 45. 
.FRIDAY...Partly sunny with a 20 percent chance of showers. Highs
65 to 70. 
.FRIDAY NIGHT...Partly cloudy with a 20 percent chance of showers.
Lows 45 to 50. 
.SATURDAY...Partly cloudy. A 20 percent chance of showers in the
morning. Highs 60 to 65. 

&&
                    TEMPERATURE           
Portland          50  63  48  64  45  70
Hillsboro         45  63  42  64  41  70

$$
=


PORTLAND-HILLSBORO AIRPORT, OR, United States (KHIO) 45-33N 122-57W 68M
Oct 01, 2017 - 05:53 AM EDT / 2017.10.01 0953 UTC
Wind: Calm:0
Visibility: 10 mile(s):0
Sky conditions: mostly clear
Temperature: 48.0 F (8.9 C)
Dew Point: 46.0 F (7.8 C)
Relative Humidity: 92%
Pressure (altimeter): 30.14 in. Hg (1020 hPa)
ob: KHIO 010953Z AUTO 00000KT 10SM FEW090 09/08 A3014 RMK AO2 SLP205 T00890078
cycle: 10
PORTLAND INTERNATIONAL  AIRPORT, OR, United States (KPDX) 45-35N 122-36W 7M
Oct 01, 2017 - 05:53 AM EDT / 2017.10.01 0953 UTC
Wind: from the SSW (200 degrees) at 5 MPH (4 KT):0
Visibility: 10 mile(s):0
Sky conditions: mostly cloudy
Temperature: 52.0 F (11.1 C)
Dew Point: 51.1 F (10.6 C)
Relative Humidity: 96%
Pressure (altimeter): 30.14 in. Hg (1020 hPa)
ob: KPDX 010953Z 20004KT 10SM FEW070 BKN080 11/11 A3014 RMK AO2 SLP205 T01110106
cycle: 10
PORTLAND-TROUTDALE AIRPORT, OR, United States (KTTD) 45-33N 122-25W 14M
Oct 01, 2017 - 05:53 AM EDT / 2017.10.01 0953 UTC
Wind: Calm:0
Visibility: 10 mile(s):0
Sky conditions: mostly cloudy
Temperature: 54.0 F (12.2 C)
Dew Point: 51.1 F (10.6 C)
Relative Humidity: 89%
Pressure (altimeter): 30.14 in. Hg (1020 hPa)
ob: KTTD 010953Z AUTO 00000KT 10SM FEW037 BKN080 12/11 A3014 RMK AO2 SLP204 T01220106
cycle: 10
MCMINNVILLE MUNICIPAL AIRPORT , OR, United States (KMMV) 45-12N 123-08W 48M
Oct 01, 2017 - 05:53 AM EDT / 2017.10.01 0953 UTC
Wind: Calm:0
Visibility: 10 mile(s):0
Sky conditions: partly cloudy
Temperature: 52.0 F (11.1 C)
Dew Point: 50.0 F (10.0 C)
Relative Humidity: 92%
Pressure (altimeter): 30.16 in. Hg (1021 hPa)
ob: KMMV 010953Z AUTO 00000KT 10SM SCT060 11/10 A3016 RMK AO2 SLP211 T01110100
cycle: 10
SALEM MCNARY FIELD, OR, United States (KSLE) 44-54N 123-00W 59M
Oct 01, 2017 - 05:56 AM EDT / 2017.10.01 0956 UTC
Wind: from the S (170 degrees) at 5 MPH (4 KT):0
Visibility: 10 mile(s):0
Sky conditions: partly cloudy
Temperature: 54.0 F (12.2 C)
Dew Point: 50.0 F (10.0 C)
Relative Humidity: 86%
Pressure (altimeter): 30.14 in. Hg (1020 hPa)
ob: KSLE 010956Z AUTO 17004KT 10SM SCT065 12/10 A3014 RMK AO2 SLP207 T01220100
cycle: 10
REDMOND ROBERTS FIELD, OR, United States (KRDM) 44-15N 121-08W
Oct 01, 2017 - 05:56 AM EDT / 2017.10.01 0956 UTC
Wind: from the W (270 degrees) at 12 MPH (10 KT):0
Visibility: 10 mile(s):0
Sky conditions: partly cloudy
Temperature: 46.9 F (8.3 C)
Dew Point: 36.0 F (2.2 C)
Relative Humidity: 65%
Pressure (altimeter): 30.1 in. Hg (1019 hPa)
ob: KRDM 010956Z AUTO 27010KT 10SM SCT050 SCT075 08/02 A3010 RMK AO2 SLP187 T00830022
cycle: 10

Date: 9/1/2017
Sunrise at:
07:09 am

Sunset at:
06:52 pm

Moonrise at:
---

Moonset at:
02:29 am 10/1/17

First Quarter  September 28 2017
Full moon  October 5 2017
Last QuarterOctober 12 2017
New moon October 19 2017
Moon age: 10 days,6 hours,30 minutes,79%
Hours of possible daylight today was 11:43:00



Use the RELOAD facility on your browser to retrieve the latest data.

Click here for current Fire weather info
Click here for the daily CLIMATOLOGICAL SUMMARY
Click here for a daily update of the averages/extremes to date for the month




Created by "Weather Display" software version 10.37R at this start time/date 8:48:03 PM 9/30/2017




On The Greenway Weather Web Site

 
 
HELP US OUT
Help us keep this weather station on the web. for the Tigard / Portland internet users to use. If you would like to help, click the donate button below
 
This site is purely funded by donations and by myself (Ray Cooper)
Anything you can do will help keep this station on the net
Average cost per year is $665 to publish and host this site excluding the cost of the weather equipment
Buyastrostuff.com is kind enough to host our DNS and email at no cost.
THANKS GUYS & Gals for helping
Have a Question,or just want to talk. Contact me at:
Ray Cooper @ Buyastrostuff.com
 

Weather Underground PWS KORTIGAR12 Weather Underground PWS KORTIGAR12